sensor_id;sensor_type;location;lat;lon;timestamp;pressure;altitude;pressure_sealevel;temperature;humidity
49943;BME280;36011;53.362;58.948;2022-12-05T00:01:29;98397.00;;;-9.11;70.01
49943;BME280;36011;53.362;58.948;2022-12-05T00:04:33;98400.41;;;-9.10;70.16
49943;BME280;36011;53.362;58.948;2022-12-05T00:07:34;98400.00;;;-9.21;69.91
49943;BME280;36011;53.362;58.948;2022-12-05T00:10:39;98400.22;;;-9.15;70.13
49943;BME280;36011;53.362;58.948;2022-12-05T00:13:43;98397.34;;;-9.24;69.90
49943;BME280;36011;53.362;58.948;2022-12-05T00:16:45;98388.75;;;-9.26;69.96
49943;BME280;36011;53.362;58.948;2022-12-05T00:19:46;98394.09;;;-9.20;70.23
49943;BME280;36011;53.362;58.948;2022-12-05T00:22:50;98391.97;;;-9.32;70.08
49943;BME280;36011;53.362;58.948;2022-12-05T00:25:56;98403.28;;;-9.25;69.50
49943;BME280;36011;53.362;58.948;2022-12-05T00:28:58;98404.66;;;-9.33;69.93
49943;BME280;36011;53.362;58.948;2022-12-05T00:32:02;98390.03;;;-9.15;69.45
49943;BME280;36011;53.362;58.948;2022-12-05T00:35:05;98406.72;;;-9.23;69.43
49943;BME280;36011;53.362;58.948;2022-12-05T00:38:09;98391.19;;;-9.29;69.67
49943;BME280;36011;53.362;58.948;2022-12-05T00:41:18;98402.63;;;-9.42;69.67
49943;BME280;36011;53.362;58.948;2022-12-05T00:44:25;98392.59;;;-9.37;69.59
49943;BME280;36011;53.362;58.948;2022-12-05T00:47:29;98387.47;;;-9.39;69.76
49943;BME280;36011;53.362;58.948;2022-12-05T00:50:31;98392.72;;;-9.34;69.57
49943;BME280;36011;53.362;58.948;2022-12-05T00:53:35;98400.84;;;-9.44;69.66
49943;BME280;36011;53.362;58.948;2022-12-05T00:56:39;98386.22;;;-9.49;69.56
49943;BME280;36011;53.362;58.948;2022-12-05T00:59:40;98380.66;;;-9.38;69.50
49943;BME280;36011;53.362;58.948;2022-12-05T01:02:41;98393.13;;;-9.46;69.33
49943;BME280;36011;53.362;58.948;2022-12-05T01:05:45;98383.78;;;-9.45;69.38
49943;BME280;36011;53.362;58.948;2022-12-05T01:08:52;98383.34;;;-9.58;69.54
49943;BME280;36011;53.362;58.948;2022-12-05T01:11:56;98377.56;;;-9.54;69.49
49943;BME280;36011;53.362;58.948;2022-12-05T01:14:57;98384.56;;;-9.48;69.38
49943;BME280;36011;53.362;58.948;2022-12-05T01:18:01;98379.47;;;-9.48;69.33
49943;BME280;36011;53.362;58.948;2022-12-05T01:21:04;98381.53;;;-9.60;69.40
49943;BME280;36011;53.362;58.948;2022-12-05T01:24:10;98383.09;;;-9.64;69.29
49943;BME280;36011;53.362;58.948;2022-12-05T01:27:17;98381.00;;;-9.74;69.47
49943;BME280;36011;53.362;58.948;2022-12-05T01:30:18;98382.63;;;-9.76;69.43
49943;BME280;36011;53.362;58.948;2022-12-05T01:33:20;98379.97;;;-9.79;69.34
49943;BME280;36011;53.362;58.948;2022-12-05T01:36:24;98380.53;;;-9.86;69.39
49943;BME280;36011;53.362;58.948;2022-12-05T01:39:28;98383.78;;;-9.90;69.35
49943;BME280;36011;53.362;58.948;2022-12-05T01:42:29;98380.28;;;-9.92;69.50
49943;BME280;36011;53.362;58.948;2022-12-05T01:45:37;98382.97;;;-9.89;69.50
49943;BME280;36011;53.362;58.948;2022-12-05T01:48:40;98379.56;;;-9.90;69.56
49943;BME280;36011;53.362;58.948;2022-12-05T01:51:46;98374.81;;;-9.81;69.46
49943;BME280;36011;53.362;58.948;2022-12-05T01:54:54;98378.28;;;-9.79;69.16
49943;BME280;36011;53.362;58.948;2022-12-05T01:58:02;98375.91;;;-9.74;69.03
49943;BME280;36011;53.362;58.948;2022-12-05T02:01:08;98389.81;;;-9.66;68.84
49943;BME280;36011;53.362;58.948;2022-12-05T02:04:12;98384.81;;;-9.63;68.69
49943;BME280;36011;53.362;58.948;2022-12-05T02:07:17;98381.59;;;-9.59;68.51
49943;BME280;36011;53.362;58.948;2022-12-05T02:10:19;98383.00;;;-9.67;68.36
49943;BME280;36011;53.362;58.948;2022-12-05T02:13:46;98386.47;;;-9.65;68.40
49943;BME280;36011;53.362;58.948;2022-12-05T02:17:07;98373.13;;;-9.58;67.94
49943;BME280;36011;53.362;58.948;2022-12-05T02:30:50;98375.66;;;-9.80;68.24
49943;BME280;36011;53.362;58.948;2022-12-05T02:37:29;98378.25;;;-9.58;67.78
49943;BME280;36011;53.362;58.948;2022-12-05T02:46:54;98367.09;;;-9.82;68.35
49943;BME280;36011;53.362;58.948;2022-12-05T02:49:59;98376.38;;;-9.84;68.53
49943;BME280;36011;53.362;58.948;2022-12-05T02:53:08;98382.13;;;-9.88;68.67
49943;BME280;36011;53.362;58.948;2022-12-05T02:56:11;98377.97;;;-9.86;68.75
49943;BME280;36011;53.362;58.948;2022-12-05T02:59:12;98371.16;;;-9.87;68.70
49943;BME280;36011;53.362;58.948;2022-12-05T03:02:21;98378.91;;;-9.84;68.80
49943;BME280;36011;53.362;58.948;2022-12-05T03:05:31;98384.44;;;-9.95;68.94
49943;BME280;36011;53.362;58.948;2022-12-05T03:08:44;98381.34;;;-9.87;69.05
49943;BME280;36011;53.362;58.948;2022-12-05T03:11:52;98381.91;;;-9.74;68.70
49943;BME280;36011;53.362;58.948;2022-12-05T03:15:02;98379.03;;;-9.81;68.96
49943;BME280;36011;53.362;58.948;2022-12-05T03:18:29;98384.56;;;-9.70;68.95
49943;BME280;36011;53.362;58.948;2022-12-05T03:21:38;98383.94;;;-9.86;69.24
49943;BME280;36011;53.362;58.948;2022-12-05T03:24:43;98380.09;;;-9.76;69.01
49943;BME280;36011;53.362;58.948;2022-12-05T03:28:01;98379.16;;;-9.78;69.09
49943;BME280;36011;53.362;58.948;2022-12-05T03:31:09;98391.72;;;-9.60;68.94
49943;BME280;36011;53.362;58.948;2022-12-05T03:34:20;98389.94;;;-9.63;69.00
49943;BME280;36011;53.362;58.948;2022-12-05T03:41:11;98390.50;;;-9.70;69.22
49943;BME280;36011;53.362;58.948;2022-12-05T03:44:46;98398.16;;;-9.70;69.41
49943;BME280;36011;53.362;58.948;2022-12-05T03:47:59;98375.66;;;-9.80;69.37
49943;BME280;36011;53.362;58.948;2022-12-05T03:51:07;98392.25;;;-9.69;69.71
49943;BME280;36011;53.362;58.948;2022-12-05T03:54:45;98396.53;;;-9.68;69.49
49943;BME280;36011;53.362;58.948;2022-12-05T03:58:00;98400.13;;;-9.63;69.74
49943;BME280;36011;53.362;58.948;2022-12-05T04:01:05;98387.84;;;-9.73;69.97
49943;BME280;36011;53.362;58.948;2022-12-05T04:04:20;98398.50;;;-9.61;70.10
49943;BME280;36011;53.362;58.948;2022-12-05T04:07:25;98403.16;;;-9.51;69.85
49943;BME280;36011;53.362;58.948;2022-12-05T04:10:36;98413.22;;;-9.54;69.91
49943;BME280;36011;53.362;58.948;2022-12-05T04:13:58;98416.69;;;-9.52;70.13
49943;BME280;36011;53.362;58.948;2022-12-05T04:17:05;98423.44;;;-9.54;70.46
49943;BME280;36011;53.362;58.948;2022-12-05T04:20:35;98422.31;;;-9.38;69.72
49943;BME280;36011;53.362;58.948;2022-12-05T04:23:56;98415.38;;;-9.42;69.64
49943;BME280;36011;53.362;58.948;2022-12-05T04:30:39;98420.34;;;-9.45;70.22
49943;BME280;36011;53.362;58.948;2022-12-05T04:33:47;98422.72;;;-9.27;70.07
49943;BME280;36011;53.362;58.948;2022-12-05T04:37:04;98429.66;;;-9.00;69.71
49943;BME280;36011;53.362;58.948;2022-12-05T04:40:27;98426.50;;;-8.71;69.24
49943;BME280;36011;53.362;58.948;2022-12-05T04:43:36;98427.75;;;-8.60;68.58
49943;BME280;36011;53.362;58.948;2022-12-05T04:46:41;98431.34;;;-8.54;68.51
49943;BME280;36011;53.362;58.948;2022-12-05T04:49:43;98429.66;;;-8.27;68.68
49943;BME280;36011;53.362;58.948;2022-12-05T04:52:49;98430.91;;;-8.16;67.80
49943;BME280;36011;53.362;58.948;2022-12-05T04:55:59;98436.25;;;-8.09;67.60
49943;BME280;36011;53.362;58.948;2022-12-05T04:59:02;98442.72;;;-8.19;67.47
49943;BME280;36011;53.362;58.948;2022-12-05T05:02:07;98438.56;;;-8.16;67.08
49943;BME280;36011;53.362;58.948;2022-12-05T05:05:10;98441.13;;;-7.90;67.20
49943;BME280;36011;53.362;58.948;2022-12-05T05:08:20;98441.09;;;-7.64;66.07
49943;BME280;36011;53.362;58.948;2022-12-05T05:11:27;98437.78;;;-7.35;65.26
49943;BME280;36011;53.362;58.948;2022-12-05T05:14:35;98443.91;;;-7.30;64.98
49943;BME280;36011;53.362;58.948;2022-12-05T05:17:39;98450.13;;;-7.49;64.57
49943;BME280;36011;53.362;58.948;2022-12-05T05:20:43;98450.22;;;-7.73;65.41
49943;BME280;36011;53.362;58.948;2022-12-05T05:23:47;98454.66;;;-7.93;65.55
49943;BME280;36011;53.362;58.948;2022-12-05T05:26:49;98444.59;;;-8.14;65.82
49943;BME280;36011;53.362;58.948;2022-12-05T05:29:50;98445.94;;;-7.99;66.11
49943;BME280;36011;53.362;58.948;2022-12-05T05:32:57;98449.22;;;-8.03;65.97
49943;BME280;36011;53.362;58.948;2022-12-05T05:36:09;98455.66;;;-8.15;66.57
49943;BME280;36011;53.362;58.948;2022-12-05T05:39:13;98453.09;;;-8.15;66.27
49943;BME280;36011;53.362;58.948;2022-12-05T05:42:14;98451.22;;;-8.19;66.45
49943;BME280;36011;53.362;58.948;2022-12-05T05:45:16;98454.63;;;-8.20;66.38
49943;BME280;36011;53.362;58.948;2022-12-05T05:48:20;98455.22;;;-8.01;66.56
49943;BME280;36011;53.362;58.948;2022-12-05T05:51:22;98462.00;;;-8.03;65.77
49943;BME280;36011;53.362;58.948;2022-12-05T05:54:28;98455.22;;;-8.01;66.32
49943;BME280;36011;53.362;58.948;2022-12-05T05:57:32;98463.34;;;-7.87;66.08
49943;BME280;36011;53.362;58.948;2022-12-05T06:00:38;98470.34;;;-7.82;65.53
49943;BME280;36011;53.362;58.948;2022-12-05T06:03:42;98469.00;;;-7.71;65.22
49943;BME280;36011;53.362;58.948;2022-12-05T06:06:48;98470.44;;;-7.79;65.53
49943;BME280;36011;53.362;58.948;2022-12-05T06:09:52;98476.38;;;-7.80;65.12
49943;BME280;36011;53.362;58.948;2022-12-05T06:12:56;98474.66;;;-7.81;64.63
49943;BME280;36011;53.362;58.948;2022-12-05T06:15:57;98482.75;;;-7.93;63.98
49943;BME280;36011;53.362;58.948;2022-12-05T06:19:03;98484.66;;;-7.87;64.84
49943;BME280;36011;53.362;58.948;2022-12-05T06:22:04;98490.69;;;-7.59;64.19
49943;BME280;36011;53.362;58.948;2022-12-05T06:25:08;98486.69;;;-7.51;63.66
49943;BME280;36011;53.362;58.948;2022-12-05T06:28:16;98485.19;;;-7.45;63.57
49943;BME280;36011;53.362;58.948;2022-12-05T06:31:21;98488.56;;;-7.46;63.74
49943;BME280;36011;53.362;58.948;2022-12-05T06:34:28;98502.03;;;-7.51;62.92
49943;BME280;36011;53.362;58.948;2022-12-05T06:37:36;98493.41;;;-7.55;63.25
49943;BME280;36011;53.362;58.948;2022-12-05T06:40:39;98475.94;;;-7.41;62.57
49943;BME280;36011;53.362;58.948;2022-12-05T06:43:44;98473.06;;;-7.50;62.80
49943;BME280;36011;53.362;58.948;2022-12-05T06:46:45;98493.69;;;-7.46;62.13
49943;BME280;36011;53.362;58.948;2022-12-05T06:49:46;98489.84;;;-7.33;62.14
49943;BME280;36011;53.362;58.948;2022-12-05T06:52:49;98481.78;;;-7.16;61.76
49943;BME280;36011;53.362;58.948;2022-12-05T06:56:04;98500.34;;;-7.24;61.33
49943;BME280;36011;53.362;58.948;2022-12-05T06:59:08;98491.19;;;-7.44;61.63
49943;BME280;36011;53.362;58.948;2022-12-05T07:02:14;98495.19;;;-7.52;62.35
49943;BME280;36011;53.362;58.948;2022-12-05T07:05:23;98504.88;;;-7.42;62.33
49943;BME280;36011;53.362;58.948;2022-12-05T07:08:27;98505.78;;;-7.40;61.58
49943;BME280;36011;53.362;58.948;2022-12-05T07:11:31;98497.75;;;-7.52;61.54
49943;BME280;36011;53.362;58.948;2022-12-05T07:14:38;98507.88;;;-7.55;62.20
49943;BME280;36011;53.362;58.948;2022-12-05T07:17:43;98510.34;;;-7.57;62.09
49943;BME280;36011;53.362;58.948;2022-12-05T07:20:57;98511.31;;;-7.53;62.12
49943;BME280;36011;53.362;58.948;2022-12-05T07:23:59;98511.03;;;-7.62;61.91
49943;BME280;36011;53.362;58.948;2022-12-05T07:27:04;98514.78;;;-7.78;61.53
49943;BME280;36011;53.362;58.948;2022-12-05T07:30:07;98518.03;;;-7.82;62.09
49943;BME280;36011;53.362;58.948;2022-12-05T07:33:11;98514.66;;;-7.81;62.03
49943;BME280;36011;53.362;58.948;2022-12-05T07:36:18;98509.59;;;-7.80;61.35
49943;BME280;36011;53.362;58.948;2022-12-05T07:39:21;98533.19;;;-7.61;61.42
49943;BME280;36011;53.362;58.948;2022-12-05T07:42:25;98533.09;;;-7.64;61.70
49943;BME280;36011;53.362;58.948;2022-12-05T07:45:29;98541.09;;;-7.55;61.80
49943;BME280;36011;53.362;58.948;2022-12-05T07:48:31;98541.13;;;-7.54;61.12
49943;BME280;36011;53.362;58.948;2022-12-05T07:51:33;98538.22;;;-7.64;61.49
49943;BME280;36011;53.362;58.948;2022-12-05T07:54:36;98545.00;;;-7.66;61.19
49943;BME280;36011;53.362;58.948;2022-12-05T07:57:39;98550.97;;;-7.66;61.49
49943;BME280;36011;53.362;58.948;2022-12-05T08:00:45;98550.28;;;-7.60;61.17
49943;BME280;36011;53.362;58.948;2022-12-05T08:03:49;98556.56;;;-7.51;60.97
49943;BME280;36011;53.362;58.948;2022-12-05T08:06:55;98560.25;;;-7.42;61.24
49943;BME280;36011;53.362;58.948;2022-12-05T08:09:59;98559.19;;;-7.49;60.75
49943;BME280;36011;53.362;58.948;2022-12-05T08:13:02;98554.13;;;-7.48;60.99
49943;BME280;36011;53.362;58.948;2022-12-05T08:16:09;98564.34;;;-7.48;60.61
49943;BME280;36011;53.362;58.948;2022-12-05T08:19:13;98562.44;;;-7.53;60.84
49943;BME280;36011;53.362;58.948;2022-12-05T08:22:19;98576.81;;;-7.57;60.35
49943;BME280;36011;53.362;58.948;2022-12-05T08:25:22;98571.03;;;-7.51;60.44
49943;BME280;36011;53.362;58.948;2022-12-05T08:28:28;98559.78;;;-7.56;60.38
49943;BME280;36011;53.362;58.948;2022-12-05T08:31:34;98569.41;;;-7.49;60.78
49943;BME280;36011;53.362;58.948;2022-12-05T08:34:36;98569.22;;;-7.55;60.77
49943;BME280;36011;53.362;58.948;2022-12-05T08:37:42;98551.22;;;-7.58;60.39
49943;BME280;36011;53.362;58.948;2022-12-05T08:40:48;98564.09;;;-7.55;60.62
49943;BME280;36011;53.362;58.948;2022-12-05T08:43:52;98573.34;;;-7.59;60.65
49943;BME280;36011;53.362;58.948;2022-12-05T08:46:56;98569.00;;;-7.61;61.15
49943;BME280;36011;53.362;58.948;2022-12-05T08:49:57;98574.00;;;-7.64;61.19
49943;BME280;36011;53.362;58.948;2022-12-05T08:53:01;98557.09;;;-7.86;60.93
49943;BME280;36011;53.362;58.948;2022-12-05T08:56:04;98578.25;;;-7.65;60.80
49943;BME280;36011;53.362;58.948;2022-12-05T08:59:06;98579.44;;;-7.55;60.55
49943;BME280;36011;53.362;58.948;2022-12-05T09:02:10;98572.28;;;-7.40;60.71
49943;BME280;36011;53.362;58.948;2022-12-05T09:05:14;98581.91;;;-7.33;60.58
49943;BME280;36011;53.362;58.948;2022-12-05T09:08:22;98588.09;;;-7.25;60.05
49943;BME280;36011;53.362;58.948;2022-12-05T09:11:30;98588.44;;;-7.15;59.86
49943;BME280;36011;53.362;58.948;2022-12-05T09:14:36;98588.81;;;-7.30;60.11
49943;BME280;36011;53.362;58.948;2022-12-05T09:17:44;98585.34;;;-7.56;60.76
49943;BME280;36011;53.362;58.948;2022-12-05T09:20:45;98592.72;;;-7.65;60.98
49943;BME280;36011;53.362;58.948;2022-12-05T09:23:51;98601.31;;;-7.63;60.68
49943;BME280;36011;53.362;58.948;2022-12-05T09:26:55;98592.78;;;-7.64;61.28
49943;BME280;36011;53.362;58.948;2022-12-05T09:29:56;98593.00;;;-7.58;60.54
49943;BME280;36011;53.362;58.948;2022-12-05T09:33:00;98600.28;;;-7.69;60.79
49943;BME280;36011;53.362;58.948;2022-12-05T09:36:10;98595.66;;;-7.79;60.77
49943;BME280;36011;53.362;58.948;2022-12-05T09:39:17;98597.06;;;-7.87;61.13
49943;BME280;36011;53.362;58.948;2022-12-05T09:49:26;98591.81;;;-7.92;60.84
49943;BME280;36011;53.362;58.948;2022-12-05T09:52:35;98593.22;;;-8.00;60.95
49943;BME280;36011;53.362;58.948;2022-12-05T09:58:51;98598.28;;;-8.01;60.98
49943;BME280;36011;53.362;58.948;2022-12-05T10:02:00;98600.94;;;-7.98;61.16
49943;BME280;36011;53.362;58.948;2022-12-05T10:05:18;98598.50;;;-7.95;60.80
49943;BME280;36011;53.362;58.948;2022-12-05T10:08:52;98601.31;;;-7.87;60.79
49943;BME280;36011;53.362;58.948;2022-12-05T10:12:13;98603.84;;;-7.89;60.74
49943;BME280;36011;53.362;58.948;2022-12-05T10:18:49;98601.59;;;-8.04;60.33
49943;BME280;36011;53.362;58.948;2022-12-05T10:22:03;98609.78;;;-8.13;60.43
49943;BME280;36011;53.362;58.948;2022-12-05T10:25:05;98613.06;;;-8.17;60.57
49943;BME280;36011;53.362;58.948;2022-12-05T10:28:36;98614.88;;;-8.13;60.93
49943;BME280;36011;53.362;58.948;2022-12-05T10:31:42;98615.31;;;-8.24;60.72
49943;BME280;36011;53.362;58.948;2022-12-05T10:34:51;98610.63;;;-8.36;60.21
49943;BME280;36011;53.362;58.948;2022-12-05T10:37:59;98601.63;;;-8.50;60.86
49943;BME280;36011;53.362;58.948;2022-12-05T10:41:07;98615.88;;;-8.55;60.94
49943;BME280;36011;53.362;58.948;2022-12-05T10:44:15;98617.03;;;-8.70;60.56
49943;BME280;36011;53.362;58.948;2022-12-05T10:47:16;98619.34;;;-8.76;60.73
49943;BME280;36011;53.362;58.948;2022-12-05T10:50:31;98582.19;;;-9.13;60.62
49943;BME280;36011;53.362;58.948;2022-12-05T10:53:46;98618.50;;;-8.97;61.05
49943;BME280;36011;53.362;58.948;2022-12-05T10:56:54;98629.09;;;-9.09;60.91
49943;BME280;36011;53.362;58.948;2022-12-05T11:00:11;98625.84;;;-9.26;61.25
49943;BME280;36011;53.362;58.948;2022-12-05T11:06:31;98639.78;;;-9.39;61.29
49943;BME280;36011;53.362;58.948;2022-12-05T11:09:38;98627.97;;;-9.37;61.54
49943;BME280;36011;53.362;58.948;2022-12-05T11:12:50;98631.94;;;-9.43;61.28
49943;BME280;36011;53.362;58.948;2022-12-05T11:15:54;98623.97;;;-9.51;61.38
49943;BME280;36011;53.362;58.948;2022-12-05T11:18:55;98634.63;;;-9.60;61.57
49943;BME280;36011;53.362;58.948;2022-12-05T11:21:58;98636.13;;;-9.65;61.33
49943;BME280;36011;53.362;58.948;2022-12-05T11:25:00;98622.47;;;-9.86;61.39
49943;BME280;36011;53.362;58.948;2022-12-05T11:28:34;98638.44;;;-9.90;61.64
49943;BME280;36011;53.362;58.948;2022-12-05T11:31:38;98634.72;;;-9.97;61.71
49943;BME280;36011;53.362;58.948;2022-12-05T11:35:25;98629.84;;;-10.12;61.26
49943;BME280;36011;53.362;58.948;2022-12-05T11:38:30;98633.06;;;-10.35;61.89
49943;BME280;36011;53.362;58.948;2022-12-05T11:48:51;98658.31;;;-10.40;62.14
49943;BME280;36011;53.362;58.948;2022-12-05T11:51:43;98653.53;;;-10.52;62.10
49943;BME280;36011;53.362;58.948;2022-12-05T11:54:57;98659.06;;;-10.60;62.22
49943;BME280;36011;53.362;58.948;2022-12-05T12:08:43;98663.56;;;-10.73;62.69
49943;BME280;36011;53.362;58.948;2022-12-05T12:12:05;98664.00;;;-10.81;62.57
49943;BME280;36011;53.362;58.948;2022-12-05T12:32:57;98679.91;;;-11.03;63.16
49943;BME280;36011;53.362;58.948;2022-12-05T12:36:26;98685.56;;;-11.09;62.85
49943;BME280;36011;53.362;58.948;2022-12-05T12:47:01;98681.84;;;-11.16;63.04
49943;BME280;36011;53.362;58.948;2022-12-05T13:02:53;98695.78;;;-11.25;63.36
49943;BME280;36011;53.362;58.948;2022-12-05T13:06:14;98700.34;;;-11.18;63.33
49943;BME280;36011;53.362;58.948;2022-12-05T13:12:32;98692.63;;;-11.38;62.91
49943;BME280;36011;53.362;58.948;2022-12-05T13:18:47;98684.47;;;-11.65;63.11
49943;BME280;36011;53.362;58.948;2022-12-05T13:21:54;98685.34;;;-11.81;62.91
49943;BME280;36011;53.362;58.948;2022-12-05T13:24:57;98695.06;;;-11.90;63.28
49943;BME280;36011;53.362;58.948;2022-12-05T13:28:03;98700.28;;;-12.03;63.17
49943;BME280;36011;53.362;58.948;2022-12-05T13:31:08;98707.56;;;-12.09;62.79
49943;BME280;36011;53.362;58.948;2022-12-05T13:37:30;98717.25;;;-12.18;62.89
49943;BME280;36011;53.362;58.948;2022-12-05T13:40:51;98710.44;;;-12.19;63.33
49943;BME280;36011;53.362;58.948;2022-12-05T13:44:12;98698.91;;;-12.29;62.97
49943;BME280;36011;53.362;58.948;2022-12-05T13:51:12;98713.91;;;-12.34;63.42
49943;BME280;36011;53.362;58.948;2022-12-05T13:54:26;98709.75;;;-12.32;63.39
49943;BME280;36011;53.362;58.948;2022-12-05T14:00:39;98713.13;;;-12.16;62.59
49943;BME280;36011;53.362;58.948;2022-12-05T14:06:55;98720.50;;;-12.05;62.61
49943;BME280;36011;53.362;58.948;2022-12-05T14:09:57;98710.13;;;-11.93;62.76
49943;BME280;36011;53.362;58.948;2022-12-05T14:13:37;98711.22;;;-12.04;62.46
49943;BME280;36011;53.362;58.948;2022-12-05T14:19:44;98719.31;;;-12.11;62.95
49943;BME280;36011;53.362;58.948;2022-12-05T14:30:19;98714.31;;;-12.10;62.83
49943;BME280;36011;53.362;58.948;2022-12-05T14:33:01;98711.13;;;-12.22;63.12
49943;BME280;36011;53.362;58.948;2022-12-05T14:36:16;98710.63;;;-12.31;63.28
49943;BME280;36011;53.362;58.948;2022-12-05T14:43:03;98709.44;;;-12.38;63.31
49943;BME280;36011;53.362;58.948;2022-12-05T14:46:29;98702.81;;;-12.19;63.21
49943;BME280;36011;53.362;58.948;2022-12-05T14:49:51;98696.78;;;-12.22;62.95
49943;BME280;36011;53.362;58.948;2022-12-05T14:53:17;98703.59;;;-12.52;63.67
49943;BME280;36011;53.362;58.948;2022-12-05T14:56:25;98709.91;;;-12.60;63.53
49943;BME280;36011;53.362;58.948;2022-12-05T14:59:38;98711.75;;;-12.57;63.97
49943;BME280;36011;53.362;58.948;2022-12-05T15:02:51;98710.19;;;-12.55;63.70
49943;BME280;36011;53.362;58.948;2022-12-05T15:05:53;98707.47;;;-12.58;63.69
49943;BME280;36011;53.362;58.948;2022-12-05T15:09:00;98717.88;;;-12.54;63.78
49943;BME280;36011;53.362;58.948;2022-12-05T15:12:19;98720.13;;;-12.44;63.74
49943;BME280;36011;53.362;58.948;2022-12-05T15:15:34;98715.84;;;-12.45;64.06
49943;BME280;36011;53.362;58.948;2022-12-05T15:18:43;98702.47;;;-12.42;63.74
49943;BME280;36011;53.362;58.948;2022-12-05T15:21:55;98709.97;;;-12.44;63.78
49943;BME280;36011;53.362;58.948;2022-12-05T15:25:13;98711.34;;;-12.34;63.62
49943;BME280;36011;53.362;58.948;2022-12-05T15:28:20;98712.44;;;-12.45;63.95
49943;BME280;36011;53.362;58.948;2022-12-05T15:31:28;98722.03;;;-12.39;63.71
49943;BME280;36011;53.362;58.948;2022-12-05T15:34:48;98725.34;;;-12.40;64.17
49943;BME280;36011;53.362;58.948;2022-12-05T15:38:00;98721.16;;;-12.40;63.75
49943;BME280;36011;53.362;58.948;2022-12-05T15:41:04;98720.97;;;-12.43;64.16
49943;BME280;36011;53.362;58.948;2022-12-05T15:44:10;98728.16;;;-12.36;63.54
49943;BME280;36011;53.362;58.948;2022-12-05T15:47:23;98740.03;;;-12.35;63.70
49943;BME280;36011;53.362;58.948;2022-12-05T15:50:35;98733.06;;;-12.39;63.80
49943;BME280;36011;53.362;58.948;2022-12-05T15:53:50;98743.81;;;-12.43;64.15
49943;BME280;36011;53.362;58.948;2022-12-05T16:00:31;98736.34;;;-12.40;64.25
49943;BME280;36011;53.362;58.948;2022-12-05T16:07:05;98696.47;;;-12.74;63.95
49943;BME280;36011;53.362;58.948;2022-12-05T16:10:11;98744.78;;;-12.41;63.72
49943;BME280;36011;53.362;58.948;2022-12-05T16:13:16;98756.31;;;-12.46;63.66
49943;BME280;36011;53.362;58.948;2022-12-05T16:16:27;98749.78;;;-12.57;63.94
49943;BME280;36011;53.362;58.948;2022-12-05T16:19:30;98756.69;;;-12.55;64.05
49943;BME280;36011;53.362;58.948;2022-12-05T16:22:34;98755.81;;;-12.55;64.05
49943;BME280;36011;53.362;58.948;2022-12-05T16:25:36;98755.81;;;-12.55;64.47
49943;BME280;36011;53.362;58.948;2022-12-05T16:28:39;98761.75;;;-12.55;63.89
49943;BME280;36011;53.362;58.948;2022-12-05T16:31:43;98762.13;;;-12.63;64.16
49943;BME280;36011;53.362;58.948;2022-12-05T16:34:47;98765.47;;;-12.64;64.77
49943;BME280;36011;53.362;58.948;2022-12-05T16:38:22;98749.38;;;-12.65;64.65
49943;BME280;36011;53.362;58.948;2022-12-05T16:41:34;98749.38;;;-12.65;64.26
49943;BME280;36011;53.362;58.948;2022-12-05T16:44:58;98749.53;;;-12.62;64.30
49943;BME280;36011;53.362;58.948;2022-12-05T16:48:30;98742.63;;;-12.64;64.21
49943;BME280;36011;53.362;58.948;2022-12-05T16:51:40;98730.41;;;-12.72;64.18
49943;BME280;36011;53.362;58.948;2022-12-05T16:55:03;98748.66;;;-12.62;64.46
49943;BME280;36011;53.362;58.948;2022-12-05T16:58:14;98747.81;;;-12.78;64.58
49943;BME280;36011;53.362;58.948;2022-12-05T17:01:24;98744.13;;;-12.83;64.40
49943;BME280;36011;53.362;58.948;2022-12-05T17:04:29;98740.19;;;-12.78;64.20
49943;BME280;36011;53.362;58.948;2022-12-05T17:07:33;98734.00;;;-12.83;64.65
49943;BME280;36011;53.362;58.948;2022-12-05T17:10:35;98748.78;;;-12.76;64.18
49943;BME280;36011;53.362;58.948;2022-12-05T17:13:36;98740.63;;;-12.85;64.49
49943;BME280;36011;53.362;58.948;2022-12-05T17:16:41;98746.06;;;-12.79;64.77
49943;BME280;36011;53.362;58.948;2022-12-05T17:19:45;98747.47;;;-12.84;64.50
49943;BME280;36011;53.362;58.948;2022-12-05T17:22:47;98759.34;;;-12.83;64.35
49943;BME280;36011;53.362;58.948;2022-12-05T17:26:08;98754.59;;;-12.77;64.57
49943;BME280;36011;53.362;58.948;2022-12-05T17:29:14;98761.09;;;-12.82;64.04
49943;BME280;36011;53.362;58.948;2022-12-05T17:32:18;98762.66;;;-12.84;64.46
49943;BME280;36011;53.362;58.948;2022-12-05T17:35:20;98770.53;;;-12.94;64.26
49943;BME280;36011;53.362;58.948;2022-12-05T17:38:22;98765.63;;;-12.91;64.58
49943;BME280;36011;53.362;58.948;2022-12-05T17:41:23;98771.75;;;-13.02;64.65
49943;BME280;36011;53.362;58.948;2022-12-05T17:44:25;98763.72;;;-12.95;64.70
49943;BME280;36011;53.362;58.948;2022-12-05T17:47:27;98775.06;;;-13.03;64.80
49943;BME280;36011;53.362;58.948;2022-12-05T17:50:28;98779.28;;;-13.04;64.76
49943;BME280;36011;53.362;58.948;2022-12-05T17:53:30;98789.41;;;-13.04;64.59
49943;BME280;36011;53.362;58.948;2022-12-05T17:56:36;98781.53;;;-13.08;64.65
49943;BME280;36011;53.362;58.948;2022-12-05T17:59:45;98789.91;;;-13.09;64.56
49943;BME280;36011;53.362;58.948;2022-12-05T18:02:46;98788.94;;;-13.12;64.60
49943;BME280;36011;53.362;58.948;2022-12-05T18:05:48;98781.34;;;-13.12;64.92
49943;BME280;36011;53.362;58.948;2022-12-05T18:08:54;98782.03;;;-13.14;64.49
49943;BME280;36011;53.362;58.948;2022-12-05T18:11:55;98769.13;;;-13.19;64.62
49943;BME280;36011;53.362;58.948;2022-12-05T18:15:02;98778.72;;;-13.28;64.39
49943;BME280;36011;53.362;58.948;2022-12-05T18:18:13;98782.75;;;-13.31;64.14
49943;BME280;36011;53.362;58.948;2022-12-05T18:21:17;98786.59;;;-13.38;64.36
49943;BME280;36011;53.362;58.948;2022-12-05T18:24:22;98792.84;;;-13.46;64.60
49943;BME280;36011;53.362;58.948;2022-12-05T18:27:26;98789.69;;;-13.57;64.47
49943;BME280;36011;53.362;58.948;2022-12-05T18:30:27;98791.22;;;-13.59;64.62
49943;BME280;36011;53.362;58.948;2022-12-05T18:33:33;98786.50;;;-13.68;64.25
49943;BME280;36011;53.362;58.948;2022-12-05T18:36:34;98796.97;;;-13.62;64.40
49943;BME280;36011;53.362;58.948;2022-12-05T18:39:44;98791.75;;;-13.65;64.20